METAR Data
IDs: Format: Raw Decoded Include TAF

Data at: 0155 UTC 01 Mar 2021

LEVS 010130Z AUTO 08004KT 020V140 CAVOK 08/03 Q1021